< < Back
Terminal Aerodrome Forecast


Current Version              Previous Versions:   1  2  3  4  5  6  7  8  9  

Terminal Aerodrome Forecast

701
FTUS42 KMLB 282300 RRA
TAFDAB
TAF
KDAB 282342Z 2900/2924 22006KT P6SM FEW040 BKN140 BKN250
     FM290400 22006KT P6SM SCT250
     FM290800 24007KT P6SM VCSH SCT025 BKN250
      TEMPO 2908/2912 SHRA BKN025
     FM291300 27011KT P6SM VCSH SCT040 BKN080 BKN250
     FM291800 27008KT P6SM VCTS SCT040CB BKN250=

Latest METAR

388
SAUS80 KWBC 290800 RRA
MTRDAB
METAR KDAB 290753Z 24007KT 10SM FEW250 26/24 A2992 RMK AO2 SLP130
T02610244


USA.gov is the U.S. government's official web portal to all federal, state and local government web resources and services.